Time;durP1;ratioP1;P1;durP2;ratioP2;P2;SDS_P1;SDS_P2;PMS_P1;PMS_P2;Temp;Humidity;BMP_temperature;BMP_pressure;BME280_temperature;BME280_humidity;BME280_pressure;Samples;Min_cycle;Max_cycle;Signal;HPM_P1;HPM_P2
2023/05/25 00:01:03;;;;;;;6.63;3.63;;;14.60;90.70;;;;;;5022495;28;20508;-85
2023/05/25 00:03:39;;;;;;;4.30;3.23;;;14.50;90.90;;;;;;5018391;28;20481;-86
2023/05/25 00:06:14;;;;;;;5.07;4.20;;;14.50;91.10;;;;;;5011286;28;20465;-87
2023/05/25 00:08:47;;;;;;;4.70;3.87;;;14.30;91.30;;;;;;4998294;28;20538;-85
2023/05/25 00:11:18;;;;;;;6.90;3.60;;;14.30;91.50;;;;;;5009764;28;20573;-86
2023/05/25 00:13:53;;;;;;;4.37;3.50;;;14.30;91.60;;;;;;5003081;28;20446;-84
2023/05/25 00:16:40;;;;;;;7.63;2.97;;;14.20;91.80;;;;;;5000226;28;20482;-86
2023/05/25 00:19:09;;;;;;;7.37;3.17;;;14.20;91.90;;;;;;5003130;28;20872;-86
2023/05/25 00:21:54;;;;;;;5.63;3.23;;;14.30;91.80;;;;;;5009639;28;20925;-83
2023/05/25 00:24:32;;;;;;;9.50;3.67;;;14.20;91.80;;;;;;5011714;28;20489;-84
2023/05/25 00:27:02;;;;;;;9.37;4.13;;;14.10;92.10;;;;;;5009888;28;20473;-84
2023/05/25 00:29:50;;;;;;;8.47;4.03;;;14.00;92.20;;;;;;5009295;28;20457;-86
2023/05/25 00:32:25;;;;;;;4.67;3.70;;;14.00;92.60;;;;;;5012908;28;20481;-86
2023/05/25 00:35:19;;;;;;;8.50;3.47;;;14.20;92.40;;;;;;5008838;28;20537;-85
2023/05/25 00:37:53;;;;;;;3.83;3.43;;;14.10;92.30;;;;;;5018909;28;20957;-86
2023/05/25 00:40:24;;;;;;;7.03;3.70;;;14.20;91.90;;;;;;5008997;28;20505;-85
2023/05/25 00:43:43;;;;;;;4.80;3.30;;;14.30;91.80;;;;;;5011019;28;20471;-86
2023/05/25 00:46:18;;;;;;;11.23;4.50;;;14.20;92.00;;;;;;5019075;28;20482;-86
2023/05/25 00:48:57;;;;;;;6.37;3.80;;;14.20;92.10;;;;;;5021516;28;20473;-84
2023/05/25 00:51:35;;;;;;;7.30;4.33;;;14.10;92.20;;;;;;5018715;28;20521;-85
2023/05/25 00:54:02;;;;;;;5.17;3.97;;;14.10;92.50;;;;;;5020392;28;20454;-85
2023/05/25 00:56:37;;;;;;;6.87;3.43;;;14.10;92.60;;;;;;5033455;28;20466;-86
2023/05/25 00:59:13;;;;;;;5.87;3.70;;;14.00;92.60;;;;;;5015107;28;20463;-87
2023/05/25 01:01:47;;;;;;;8.63;4.00;;;14.10;93.20;;;;;;5006487;28;20900;-85
2023/05/25 01:04:16;;;;;;;6.83;3.70;;;14.00;93.00;;;;;;5004158;28;21000;-84
2023/05/25 01:06:48;;;;;;;4.73;3.97;;;13.90;93.30;;;;;;5006914;28;20450;-86
2023/05/25 01:09:28;;;;;;;9.53;4.53;;;13.70;93.50;;;;;;5015224;28;20442;-84
2023/05/25 01:11:56;;;;;;;4.97;4.47;;;13.70;93.90;;;;;;5021079;28;20453;-85
2023/05/25 01:14:30;;;;;;;4.10;3.20;;;13.70;94.10;;;;;;5013328;28;20570;-83
2023/05/25 01:17:04;;;;;;;8.97;3.60;;;13.70;94.20;;;;;;5012991;28;20454;-86
2023/05/25 01:19:36;;;;;;;7.63;4.20;;;13.70;94.20;;;;;;5019233;28;20449;-86
2023/05/25 01:22:48;;;;;;;4.00;2.97;;;13.70;94.20;;;;;;5008281;28;20458;-86
2023/05/25 01:25:53;;;;;;;10.00;3.80;;;13.70;94.10;;;;;;4996658;28;20498;-87
2023/05/25 01:28:27;;;;;;;8.83;2.97;;;13.70;94.10;;;;;;5013612;28;20456;-87
2023/05/25 01:30:56;;;;;;;6.33;3.47;;;13.70;93.90;;;;;;5006294;28;20836;-86
2023/05/25 01:33:32;;;;;;;6.63;4.07;;;14.00;93.70;;;;;;5018003;28;20470;-85
2023/05/25 01:36:09;;;;;;;6.47;3.73;;;13.90;93.60;;;;;;5015037;28;20467;-86
2023/05/25 01:38:38;;;;;;;9.57;3.57;;;13.90;93.50;;;;;;5014405;28;20810;-86
2023/05/25 01:41:05;;;;;;;6.97;3.70;;;13.90;93.40;;;;;;5011754;28;20887;-86
2023/05/25 01:43:38;;;;;;;6.00;4.00;;;13.70;93.60;;;;;;5011443;28;20478;-87
2023/05/25 01:46:32;;;;;;;4.50;3.40;;;13.80;93.60;;;;;;5009587;28;20513;-86
2023/05/25 01:49:08;;;;;;;6.27;3.10;;;13.60;93.70;;;;;;5009896;28;20461;-87
2023/05/25 01:51:46;;;;;;;7.20;3.20;;;13.60;94.10;;;;;;5029602;28;20472;-87
2023/05/25 01:54:21;;;;;;;8.20;3.30;;;13.60;94.40;;;;;;5021747;28;20481;-86
2023/05/25 01:56:51;;;;;;;7.33;4.03;;;13.60;94.70;;;;;;5012595;28;20454;-86
2023/05/25 01:59:26;;;;;;;6.77;4.00;;;13.70;94.90;;;;;;5013767;28;20425;-87
2023/05/25 02:02:00;;;;;;;9.73;3.90;;;13.70;95.00;;;;;;5012682;28;20455;-87
2023/05/25 02:04:31;;;;;;;7.03;3.60;;;13.70;95.20;;;;;;5012979;28;20505;-86
2023/05/25 02:06:58;;;;;;;5.53;4.13;;;13.70;95.30;;;;;;5012647;28;20518;-87
2023/05/25 02:09:33;;;;;;;5.30;4.13;;;13.60;95.40;;;;;;5013352;28;21011;-85
2023/05/25 02:12:11;;;;;;;9.60;4.30;;;13.60;95.50;;;;;;5011779;28;20446;-87
2023/05/25 02:14:40;;;;;;;6.60;3.70;;;13.50;95.40;;;;;;5015908;28;20849;-87
2023/05/25 02:17:11;;;;;;;8.20;4.13;;;13.50;95.50;;;;;;5024528;28;20450;-84
2023/05/25 02:19:51;;;;;;;8.63;4.77;;;13.50;95.60;;;;;;5025763;28;20465;-84
2023/05/25 02:22:20;;;;;;;9.17;4.23;;;13.70;95.60;;;;;;5022705;28;20451;-86
2023/05/25 02:24:49;;;;;;;6.60;4.20;;;13.70;95.40;;;;;;5017524;28;21054;-85
2023/05/25 02:27:23;;;;;;;12.60;4.00;;;13.70;95.40;;;;;;5004023;28;20474;-85
2023/05/25 02:29:54;;;;;;;7.07;3.60;;;13.70;95.60;;;;;;5012417;28;20488;-85
2023/05/25 02:32:32;;;;;;;7.43;3.63;;;13.60;95.30;;;;;;5013787;28;20458;-85
2023/05/25 02:35:02;;;;;;;5.83;3.97;;;13.60;95.40;;;;;;5007169;28;20491;-86
2023/05/25 02:37:32;;;;;;;8.20;3.80;;;13.40;95.60;;;;;;5010044;28;20438;-85
2023/05/25 02:40:08;;;;;;;5.47;4.20;;;13.40;95.80;;;;;;5016368;28;20454;-87
2023/05/25 02:42:35;;;;;;;6.73;3.30;;;13.40;95.80;;;;;;5015694;28;20450;-85
2023/05/25 02:45:05;;;;;;;8.50;3.93;;;13.40;95.70;;;;;;5012831;28;20466;-87
2023/05/25 02:47:32;;;;;;;7.60;4.20;;;13.80;94.90;;;;;;5012402;28;20450;-86
2023/05/25 02:50:05;;;;;;;7.60;4.10;;;13.80;94.50;;;;;;5008338;28;20495;-85
2023/05/25 02:52:35;;;;;;;6.70;4.00;;;13.60;94.70;;;;;;5004251;28;20458;-85
2023/05/25 02:55:12;;;;;;;6.37;3.73;;;13.40;95.40;;;;;;5013393;28;20466;-86
2023/05/25 02:57:39;;;;;;;11.53;4.90;;;13.20;95.60;;;;;;5009560;28;20463;-87
2023/05/25 03:00:07;;;;;;;8.50;4.80;;;13.20;96.10;;;;;;5012987;28;20450;-86
2023/05/25 03:02:36;;;;;;;7.40;3.70;;;13.10;96.40;;;;;;5019349;28;20458;-87
2023/05/25 03:05:11;;;;;;;5.90;3.83;;;13.10;96.50;;;;;;5012416;28;20470;-87
2023/05/25 03:07:42;;;;;;;5.77;3.60;;;13.10;96.80;;;;;;5011667;28;20458;-87
2023/05/25 03:10:14;;;;;;;9.70;4.23;;;13.10;97.00;;;;;;5020446;28;20516;-88
2023/05/25 03:12:58;;;;;;;10.03;3.97;;;13.00;97.10;;;;;;5013260;28;20458;-86
2023/05/25 03:15:29;;;;;;;8.20;4.13;;;13.10;97.20;;;;;;5026085;28;20479;-85
2023/05/25 03:18:00;;;;;;;6.23;3.70;;;13.20;97.30;;;;;;5028620;28;20454;-84
2023/05/25 03:20:31;;;;;;;6.60;4.30;;;13.10;97.30;;;;;;5024195;28;20443;-85
2023/05/25 03:22:58;;;;;;;6.40;3.73;;;13.10;97.40;;;;;;5022944;28;20476;-86
2023/05/25 03:25:29;;;;;;;6.20;4.67;;;13.10;97.60;;;;;;5010496;28;20466;-86
2023/05/25 03:27:56;;;;;;;5.37;3.87;;;13.10;97.70;;;;;;5011576;28;20457;-84
2023/05/25 03:30:26;;;;;;;6.13;3.93;;;13.20;97.30;;;;;;5010227;28;20450;-85
2023/05/25 03:33:00;;;;;;;6.40;4.10;;;13.10;97.30;;;;;;5013926;28;20449;-85
2023/05/25 03:35:30;;;;;;;8.53;4.87;;;13.10;97.40;;;;;;5001694;28;20485;-86
2023/05/25 03:38:00;;;;;;;9.70;5.30;;;13.10;97.50;;;;;;5006832;28;20748;-86
2023/05/25 03:40:30;;;;;;;5.60;4.47;;;13.10;97.40;;;;;;5002691;28;20515;-84
2023/05/25 03:43:03;;;;;;;9.40;5.03;;;13.00;97.30;;;;;;5000779;28;20558;-85
2023/05/25 03:45:33;;;;;;;7.73;4.47;;;13.00;97.30;;;;;;5010148;28;20470;-85
2023/05/25 03:48:13;;;;;;;12.70;4.77;;;12.90;97.30;;;;;;5011480;28;21103;-86
2023/05/25 03:50:47;;;;;;;8.10;4.43;;;13.00;97.30;;;;;;5012648;28;20460;-87
2023/05/25 03:53:20;;;;;;;8.40;5.40;;;13.00;97.10;;;;;;5008580;28;20526;-86
2023/05/25 03:55:51;;;;;;;6.00;4.47;;;13.00;97.00;;;;;;5010791;28;20466;-86
2023/05/25 03:58:23;;;;;;;6.00;4.40;;;13.00;97.00;;;;;;5002215;28;20448;-87
2023/05/25 04:01:04;;;;;;;11.03;4.67;;;13.10;96.90;;;;;;5026721;28;20493;-88
2023/05/25 04:03:34;;;;;;;10.07;4.53;;;13.10;96.80;;;;;;5017376;28;20474;-86
2023/05/25 04:06:11;;;;;;;8.13;5.17;;;13.10;97.10;;;;;;5006923;28;20474;-86
2023/05/25 04:08:46;;;;;;;8.57;4.60;;;13.00;96.70;;;;;;5015473;28;20456;-86
2023/05/25 04:11:24;;;;;;;9.37;4.97;;;13.10;96.80;;;;;;5021616;28;20562;-87
2023/05/25 04:13:54;;;;;;;8.60;4.40;;;13.00;96.90;;;;;;5015135;28;20462;-86
2023/05/25 04:16:28;;;;;;;6.13;4.07;;;13.00;97.10;;;;;;5016118;28;20476;-86
2023/05/25 04:19:22;;;;;;;6.83;4.43;;;13.30;97.10;;;;;;5017655;28;20504;-86
2023/05/25 04:21:55;;;;;;;5.83;4.50;;;13.30;96.70;;;;;;5022367;28;20807;-85
2023/05/25 04:24:27;;;;;;;9.33;5.33;;;13.30;96.40;;;;;;5016104;28;20493;-86
2023/05/25 04:27:04;;;;;;;9.87;5.77;;;13.30;96.40;;;;;;5023311;28;20462;-85
2023/05/25 04:29:47;;;;;;;7.33;4.57;;;13.30;96.50;;;;;;5020192;28;20446;-85
2023/05/25 04:32:28;;;;;;;9.43;4.90;;;13.40;96.20;;;;;;5011127;28;20443;-87
2023/05/25 04:35:04;;;;;;;7.87;4.63;;;13.30;96.30;;;;;;5009109;28;20482;-86
2023/05/25 04:37:35;;;;;;;6.07;4.70;;;13.30;96.60;;;;;;5020417;28;20461;-85
2023/05/25 04:40:12;;;;;;;7.63;4.93;;;13.40;96.70;;;;;;5011338;28;20481;-85
2023/05/25 04:42:55;;;;;;;5.13;4.70;;;13.50;96.40;;;;;;5007290;28;20453;-85
2023/05/25 04:45:39;;;;;;;10.90;4.57;;;13.30;96.40;;;;;;5013835;28;20471;-85
2023/05/25 04:48:09;;;;;;;10.83;5.10;;;13.20;96.70;;;;;;5006779;28;20461;-86
2023/05/25 04:50:42;;;;;;;6.63;4.23;;;13.40;97.00;;;;;;5007386;28;20901;-84
2023/05/25 04:53:40;;;;;;;6.53;5.70;;;13.60;96.50;;;;;;5017290;28;20454;-86
2023/05/25 04:56:46;;;;;;;;;;;;;;;;;;;;;
2023/05/25 05:00:10;;;;;;;8.90;4.60;;;13.30;96.80;;;;;;5006151;28;20463;-87
2023/05/25 05:02:57;;;;;;;6.37;5.10;;;13.20;96.90;;;;;;5008783;28;20961;-87
2023/05/25 05:05:42;;;;;;;6.90;4.50;;;13.20;97.00;;;;;;5018716;22;20490;-86
2023/05/25 05:08:34;;;;;;;12.83;5.90;;;13.20;97.00;;;;;;5009327;28;20630;-87
2023/05/25 05:11:27;;;;;;;8.70;5.13;;;13.30;97.00;;;;;;5016659;28;20448;-84
2023/05/25 05:14:16;;;;;;;13.53;5.73;;;13.30;97.00;;;;;;5012919;28;20527;-87
2023/05/25 05:17:23;;;;;;;6.90;4.00;;;13.30;97.00;;;;;;4980755;28;20446;-85
2023/05/25 05:20:07;;;;;;;9.33;4.87;;;13.40;97.00;;;;;;5004632;28;20489;-85
2023/05/25 05:22:42;;;;;;;6.97;5.40;;;13.50;96.80;;;;;;4996133;28;20479;-87
2023/05/25 05:25:37;;;;;;;7.37;4.93;;;13.90;96.50;;;;;;4929568;29;20501;-86
2023/05/25 05:28:26;;;;;;;10.90;5.10;;;13.80;96.10;;;;;;4997032;28;20451;-85
2023/05/25 05:31:05;;;;;;;8.20;4.73;;;14.00;95.70;;;;;;5008852;28;20529;-85
2023/05/25 05:33:50;;;;;;;10.80;5.53;;;14.30;95.50;;;;;;5001295;28;20462;-87
2023/05/25 05:36:44;;;;;;;8.87;5.00;;;14.50;94.80;;;;;;5161478;22;20499;-86
2023/05/25 05:40:04;;;;;;;10.47;5.83;;;14.30;94.90;;;;;;5021374;28;20517;-85
2023/05/25 05:43:20;;;;;;;7.90;5.50;;;14.10;95.00;;;;;;4939857;29;21033;-86
2023/05/25 05:46:44;;;;;;;9.03;5.70;;;13.90;95.60;;;;;;4950965;29;20530;-86
2023/05/25 05:50:20;;;;;;;9.50;5.10;;;14.40;95.90;;;;;;4901179;29;20451;-86
2023/05/25 05:53:34;;;;;;;13.07;7.97;;;14.50;94.80;;;;;;4891760;29;20502;-87
2023/05/25 05:56:33;;;;;;;8.50;6.07;;;14.20;94.90;;;;;;5004489;22;20996;-86
2023/05/25 05:59:53;;;;;;;10.03;5.67;;;14.50;95.30;;;;;;5022410;28;20449;-87
2023/05/25 06:03:02;;;;;;;10.73;6.33;;;14.50;95.30;;;;;;5011318;28;20499;-87
2023/05/25 06:05:34;;;;;;;10.30;6.00;;;15.00;94.50;;;;;;5025523;28;20986;-86
2023/05/25 06:08:28;;;;;;;;;;;;;;;;;;;;;
2023/05/25 06:11:31;;;;;;;19.77;7.70;;;14.80;94.80;;;;;;5012973;28;20465;-85
2023/05/25 06:14:26;;;;;;;10.77;6.77;;;14.80;94.70;;;;;;5017409;28;20434;-86
2023/05/25 06:17:26;;;;;;;10.40;6.00;;;15.00;94.30;;;;;;5011836;28;20450;-83
2023/05/25 06:20:05;;;;;;;9.00;5.47;;;14.90;94.30;;;;;;5017764;28;20465;-84
2023/05/25 06:22:52;;;;;;;12.67;7.37;;;14.80;94.40;;;;;;5002708;28;20522;-84
2023/05/25 06:25:41;;;;;;;6.40;5.80;;;14.90;94.70;;;;;;5043777;22;20582;-85
2023/05/25 06:28:30;;;;;;;17.30;7.30;;;15.20;94.10;;;;;;5022182;28;20470;-85
2023/05/25 06:31:07;;;;;;;9.53;6.57;;;15.30;93.70;;;;;;5022074;28;20484;-87
2023/05/25 06:33:34;;;;;;;8.83;5.80;;;15.30;93.70;;;;;;5019285;28;20458;-86
2023/05/25 06:36:09;;;;;;;14.97;6.70;;;15.30;93.60;;;;;;5011794;28;20500;-87
2023/05/25 06:38:43;;;;;;;14.27;6.47;;;15.20;93.70;;;;;;5006558;28;20465;-85
2023/05/25 06:41:18;;;;;;;10.50;6.40;;;14.90;93.90;;;;;;5022759;28;20464;-84
2023/05/25 06:43:50;;;;;;;7.23;5.90;;;15.00;94.30;;;;;;5016739;28;20443;-87
2023/05/25 06:46:21;;;;;;;11.57;6.63;;;15.10;94.00;;;;;;5027738;28;20545;-86
2023/05/25 06:48:51;;;;;;;8.67;5.80;;;15.10;94.20;;;;;;5016932;28;20474;-86
2023/05/25 06:51:30;;;;;;;11.23;7.07;;;15.20;94.10;;;;;;5019444;28;21037;-84
2023/05/25 06:54:14;;;;;;;9.93;5.87;;;15.30;94.00;;;;;;4992162;28;20919;-85
2023/05/25 06:56:51;;;;;;;13.43;7.10;;;15.50;93.90;;;;;;4992843;28;20462;-83
2023/05/25 06:59:41;;;;;;;16.10;7.37;;;15.50;93.50;;;;;;4875768;27;7753630;-85
2023/05/25 07:02:20;;;;;;;10.60;7.30;;;15.60;93.30;;;;;;5110002;28;20224;-85
2023/05/25 07:04:52;;;;;;;12.93;7.40;;;15.50;93.10;;;;;;5107068;28;20514;-84
2023/05/25 07:07:25;;;;;;;10.70;6.13;;;15.80;92.60;;;;;;5109240;28;20450;-84
2023/05/25 07:10:05;;;;;;;10.50;6.50;;;16.00;92.30;;;;;;5117524;28;20446;-83
2023/05/25 07:12:40;;;;;;;13.03;6.60;;;15.70;92.20;;;;;;5110667;28;20462;-85
2023/05/25 07:15:12;;;;;;;11.20;7.10;;;15.90;92.60;;;;;;5113449;28;20562;-83
2023/05/25 07:17:51;;;;;;;9.27;5.80;;;16.20;92.20;;;;;;5112795;28;20470;-85
2023/05/25 07:20:57;;;;;;;10.93;5.90;;;16.30;91.60;;;;;;5114545;28;20471;-84
2023/05/25 07:23:36;;;;;;;9.60;5.60;;;16.20;92.00;;;;;;5106602;28;20513;-83
2023/05/25 07:26:27;;;;;;;9.03;5.90;;;16.30;91.70;;;;;;5104788;28;20453;-85
2023/05/25 07:28:59;;;;;;;12.43;5.63;;;16.40;91.50;;;;;;5113202;27;20610;-85
2023/05/25 07:31:45;;;;;;;6.33;5.73;;;16.70;91.10;;;;;;5103247;27;20469;-85
2023/05/25 07:34:38;;;;;;;9.13;5.80;;;16.70;90.70;;;;;;5110634;28;20513;-84
2023/05/25 07:37:23;;;;;;;8.90;5.17;;;16.70;90.80;;;;;;5113895;28;20505;-87
2023/05/25 07:40:11;;;;;;;10.07;5.67;;;16.70;90.60;;;;;;5112526;28;20460;-84
2023/05/25 07:43:13;;;;;;;11.17;5.50;;;16.50;90.80;;;;;;5099678;28;20462;-86
2023/05/25 07:45:54;;;;;;;9.73;4.87;;;16.40;91.10;;;;;;5085409;28;20777;-87
2023/05/25 07:48:36;;;;;;;9.23;4.60;;;16.90;91.20;;;;;;5099816;28;20516;-87
2023/05/25 07:51:33;;;;;;;11.53;5.40;;;17.00;90.40;;;;;;5095416;28;20434;-86
2023/05/25 07:54:23;;;;;;;5.23;4.47;;;17.30;90.60;;;;;;5102070;28;20511;-87
2023/05/25 07:57:02;;;;;;;8.20;6.33;;;17.50;89.80;;;;;;5101424;28;20461;-87
2023/05/25 08:00:06;;;;;;;9.90;6.13;;;17.60;89.80;;;;;;5096704;28;20487;-86
2023/05/25 08:02:46;;;;;;;7.17;4.67;;;18.10;88.60;;;;;;5100015;28;20449;-86
2023/05/25 08:05:36;;;;;;;8.90;5.67;;;18.20;88.00;;;;;;5102977;28;20878;-84
2023/05/25 08:08:23;;;;;;;7.40;4.73;;;18.40;86.30;;;;;;5110209;28;20446;-85
2023/05/25 08:11:25;;;;;;;10.40;5.93;;;18.40;84.30;;;;;;5081568;28;20454;-84
2023/05/25 08:14:01;;;;;;;7.00;4.93;;;18.80;84.90;;;;;;5077026;28;20938;-86
2023/05/25 08:16:42;;;;;;;10.63;5.50;;;18.90;83.20;;;;;;5067935;28;20542;-86
2023/05/25 08:19:34;;;;;;;12.40;6.00;;;19.30;81.90;;;;;;5086711;28;20478;-87
2023/05/25 08:22:18;;;;;;;7.63;5.63;;;19.30;81.20;;;;;;5088209;28;20808;-86
2023/05/25 08:24:50;;;;;;;8.80;6.10;;;19.50;81.40;;;;;;5088554;28;20458;-85
2023/05/25 08:27:36;;;;;;;7.40;5.90;;;20.40;78.20;;;;;;5104049;28;20430;-85
2023/05/25 08:30:18;;;;;;;9.17;5.43;;;20.20;76.10;;;;;;5098295;28;20442;-84
2023/05/25 08:33:14;;;;;;;7.03;6.07;;;20.30;76.30;;;;;;5099240;28;20456;-84
2023/05/25 08:36:00;;;;;;;7.20;5.40;;;21.00;72.60;;;;;;5555197;22;20526;-87
2023/05/25 08:38:30;;;;;;;9.10;5.50;;;21.00;72.50;;;;;;5034411;28;20503;-85
2023/05/25 08:41:26;;;;;;;10.67;6.00;;;21.40;71.20;;;;;;5044427;28;20445;-83
2023/05/25 08:44:25;;;;;;;7.93;5.37;;;22.40;68.50;;;;;;5032738;28;20998;-83
2023/05/25 08:47:21;;;;;;;7.07;5.50;;;23.40;63.10;;;;;;5034630;28;20445;-83
2023/05/25 08:50:14;;;;;;;6.30;5.13;;;23.90;62.00;;;;;;5030786;28;20444;-84
2023/05/25 08:53:10;;;;;;;6.70;4.90;;;24.10;59.30;;;;;;5035132;28;20442;-84
2023/05/25 08:56:27;;;;;;;5.90;4.30;;;25.30;56.80;;;;;;5041620;28;20484;-85
2023/05/25 08:59:59;;;;;;;;;;;;;;;;;;;;;
2023/05/25 09:06:37;;;;;;;6.17;4.20;;;25.60;53.00;;;;;;4961694;28;20526;-85
2023/05/25 09:09:26;;;;;;;8.13;4.53;;;26.30;52.50;;;;;;4953936;28;20535;-85
2023/05/25 09:12:18;;;;;;;5.20;3.93;;;28.50;49.10;;;;;;4955395;28;20464;-85
2023/05/25 09:18:03;;;;;;;4.97;3.70;;;29.30;46.00;;;;;;5015681;28;20473;-86
2023/05/25 09:21:19;;;;;;;3.87;3.40;;;30.10;44.30;;;;;;5008390;28;20454;-86
2023/05/25 09:24:28;;;;;;;3.70;3.10;;;30.00;43.20;;;;;;5017081;28;20500;-86
2023/05/25 09:27:45;;;;;;;3.50;3.20;;;29.70;43.30;;;;;;4989156;28;20859;-86
2023/05/25 09:30:22;;;;;;;4.03;3.53;;;28.30;43.20;;;;;;4985857;28;20523;-81
2023/05/25 09:33:20;;;;;;;6.07;3.60;;;26.80;44.70;;;;;;4988853;28;20497;-85
2023/05/25 09:36:44;;;;;;;5.07;3.80;;;27.30;46.20;;;;;;4995375;28;20455;-83
2023/05/25 09:39:51;;;;;;;;;;;;;;;;;;;;;
2023/05/25 09:42:53;;;;;;;5.10;4.00;;;25.80;47.20;;;;;;4987262;28;21038;-85
2023/05/25 09:45:46;;;;;;;7.13;4.57;;;24.40;50.30;;;;;;5006446;28;20463;-85
2023/05/25 09:48:45;;;;;;;5.30;3.80;;;25.70;49.20;;;;;;5004992;28;20463;-84
2023/05/25 09:52:07;;;;;;;5.33;4.27;;;25.20;49.80;;;;;;5004788;28;20438;-87
2023/05/25 09:55:19;;;;;;;4.50;4.00;;;25.50;50.20;;;;;;5008416;28;20467;-84
2023/05/25 09:58:12;;;;;;;5.63;4.60;;;27.50;46.70;;;;;;5006587;28;20522;-86
2023/05/25 10:00:50;;;;;;;4.57;3.70;;;27.10;46.00;;;;;;5010582;28;20453;-85
2023/05/25 10:04:11;;;;;;;5.70;4.37;;;27.80;45.90;;;;;;4941887;28;20435;-85
2023/05/25 10:06:55;;;;;;;5.73;4.90;;;28.20;44.40;;;;;;4949785;28;21340;-85
2023/05/25 10:09:52;;;;;;;5.97;3.80;;;28.50;44.40;;;;;;4913819;29;20442;-85
2023/05/25 10:12:50;;;;;;;4.67;3.47;;;28.90;43.80;;;;;;4938111;29;20495;-85
2023/05/25 10:16:11;;;;;;;4.67;4.17;;;28.90;42.50;;;;;;4944344;29;20477;-86
2023/05/25 10:19:23;;;;;;;5.43;3.80;;;28.70;43.60;;;;;;4937414;29;20501;-84
2023/05/25 10:22:07;;;;;;;7.90;5.00;;;28.70;43.40;;;;;;4920719;29;20466;-85
2023/05/25 10:25:07;;;;;;;4.67;4.17;;;29.00;42.50;;;;;;4938975;29;20848;-85
2023/05/25 10:28:15;;;;;;;5.00;4.50;;;29.00;43.30;;;;;;4951803;28;20472;-84
2023/05/25 10:30:59;;;;;;;5.10;4.60;;;28.30;43.30;;;;;;4942014;29;20431;-86
2023/05/25 10:33:34;;;;;;;5.87;4.87;;;27.50;45.00;;;;;;4951445;29;20434;-85
2023/05/25 10:36:13;;;;;;;5.70;5.10;;;27.60;45.30;;;;;;4938647;29;20474;-86
2023/05/25 10:38:57;;;;;;;5.27;4.80;;;27.10;45.10;;;;;;4961611;28;20490;-86
2023/05/25 10:41:28;;;;;;;6.20;5.07;;;25.90;46.90;;;;;;5000891;28;20547;-86
2023/05/25 10:44:06;;;;;;;8.33;5.37;;;26.50;47.00;;;;;;5009958;28;20455;-87
2023/05/25 10:46:49;;;;;;;4.63;4.23;;;27.00;45.90;;;;;;5001126;28;20474;-85
2023/05/25 10:50:01;;;;;;;5.70;5.10;;;26.80;46.70;;;;;;5002446;28;20954;-86
2023/05/25 10:52:43;;;;;;;8.47;5.37;;;27.40;45.70;;;;;;4997990;28;20553;-84
2023/05/25 10:58:32;;;;;;;5.63;5.13;;;25.80;47.90;;;;;;4987185;28;20467;-85
2023/05/25 11:01:21;;;;;;;7.90;4.90;;;25.10;49.40;;;;;;4993938;28;21014;-84
2023/05/25 11:04:09;;;;;;;5.30;4.80;;;25.20;48.90;;;;;;4989210;28;20452;-85
2023/05/25 11:06:53;;;;;;;5.40;4.90;;;24.50;50.20;;;;;;4995333;28;20463;-84
2023/05/25 11:09:58;;;;;;;5.53;5.03;;;24.60;50.30;;;;;;4990601;28;20535;-85
2023/05/25 11:12:30;;;;;;;6.27;5.07;;;25.10;50.20;;;;;;4989382;28;20456;-85
2023/05/25 11:15:22;;;;;;;7.27;5.57;;;25.40;49.30;;;;;;4997440;28;21006;-85
2023/05/25 11:18:01;;;;;;;6.37;4.70;;;25.10;49.50;;;;;;5012195;28;20538;-84
2023/05/25 11:21:02;;;;;;;;;;;;;;;;;;;;;
2023/05/25 11:24:22;;;;;;;5.30;4.80;;;26.00;47.90;;;;;;4969818;28;20491;-85
2023/05/25 11:27:08;;;;;;;5.20;4.70;;;25.00;48.80;;;;;;4967736;28;20468;-87
2023/05/25 11:29:56;;;;;;;7.30;4.63;;;25.50;48.90;;;;;;4966689;28;20460;-87
2023/05/25 11:33:12;;;;;;;5.33;4.60;;;26.10;48.40;;;;;;4957177;28;20493;-86
2023/05/25 11:36:00;;;;;;;4.87;4.30;;;26.00;47.80;;;;;;4955561;28;21092;-86
2023/05/25 11:38:34;;;;;;;6.73;4.70;;;27.00;46.40;;;;;;4969466;28;20619;-85
2023/05/25 11:41:23;;;;;;;6.43;4.77;;;27.00;46.60;;;;;;4966971;28;20436;-84
2023/05/25 11:44:12;;;;;;;5.73;5.20;;;26.80;46.60;;;;;;4937851;28;20492;-87
2023/05/25 11:47:00;;;;;;;5.73;5.17;;;27.40;45.70;;;;;;4961022;28;20468;-86
2023/05/25 11:50:02;;;;;;;5.43;4.97;;;27.30;45.00;;;;;;4961607;28;20452;-87
2023/05/25 11:52:44;;;;;;;8.37;4.80;;;27.50;45.50;;;;;;4963635;28;20503;-86
2023/05/25 11:55:22;;;;;;;5.33;4.87;;;27.30;45.30;;;;;;5096416;22;20494;-86
2023/05/25 11:58:38;;;;;;;5.33;4.63;;;28.20;44.50;;;;;;5016662;28;20859;-86
2023/05/25 12:01:22;;;;;;;7.37;4.30;;;27.80;44.30;;;;;;5014664;28;20863;-85
2023/05/25 12:06:56;;;;;;;7.23;4.37;;;26.40;45.90;;;;;;5313215;22;21173;-86
2023/05/25 12:10:15;;;;;;;6.10;5.47;;;26.20;46.50;;;;;;5014531;28;20450;-85
2023/05/25 12:12:51;;;;;;;7.23;6.37;;;25.70;47.80;;;;;;5004639;28;20936;-85
2023/05/25 12:15:29;;;;;;;7.80;6.47;;;25.70;47.80;;;;;;5007459;28;20845;-85
2023/05/25 12:17:59;;;;;;;7.20;6.50;;;25.40;47.80;;;;;;5007000;28;20438;-85
2023/05/25 12:20:45;;;;;;;7.33;6.60;;;24.70;48.90;;;;;;5004254;28;20482;-86
2023/05/25 12:23:29;;;;;;;7.70;6.70;;;24.70;49.40;;;;;;5001096;28;20525;-87
2023/05/25 12:26:13;;;;;;;7.47;6.77;;;24.30;50.00;;;;;;4998758;28;20507;-86
2023/05/25 12:29:31;;;;;;;9.60;7.50;;;24.60;50.50;;;;;;4999932;28;20482;-87
2023/05/25 12:32:05;;;;;;;6.93;6.23;;;24.50;50.20;;;;;;5000013;28;20490;-86
2023/05/25 12:34:47;;;;;;;6.90;6.30;;;24.80;49.70;;;;;;4998944;28;20462;-86
2023/05/25 12:37:41;;;;;;;9.27;6.23;;;25.00;49.20;;;;;;4998076;28;20534;-85
2023/05/25 12:40:28;;;;;;;7.07;6.23;;;25.70;47.60;;;;;;5010438;28;20484;-86
2023/05/25 12:43:10;;;;;;;7.40;6.70;;;26.00;46.80;;;;;;4991914;28;20836;-86
2023/05/25 12:46:03;;;;;;;9.00;7.00;;;25.90;46.80;;;;;;5001175;28;20485;-85
2023/05/25 12:48:38;;;;;;;8.10;6.33;;;25.00;47.60;;;;;;4994918;28;20483;-86
2023/05/25 12:51:39;;;;;;;9.97;7.20;;;24.80;48.50;;;;;;4997506;28;20519;-85
2023/05/25 12:54:08;;;;;;;7.33;6.63;;;25.20;48.00;;;;;;4995366;28;21372;-85
2023/05/25 12:56:58;;;;;;;8.80;7.60;;;25.40;47.10;;;;;;4992386;28;20455;-84
2023/05/25 12:59:49;;;;;;;7.97;7.17;;;24.80;48.00;;;;;;4997723;28;20471;-85
2023/05/25 13:02:31;;;;;;;9.40;8.50;;;24.80;48.40;;;;;;4983342;28;20486;-86
2023/05/25 13:05:20;;;;;;;8.10;7.30;;;24.80;48.60;;;;;;5008498;28;20470;-87
2023/05/25 13:08:01;;;;;;;7.43;6.70;;;25.10;47.50;;;;;;5002428;28;20439;-85
2023/05/25 13:10:47;;;;;;;5.57;5.03;;;25.10;47.50;;;;;;4993733;28;20497;-87
2023/05/25 13:13:59;;;;;;;;;;;;;;;;;;;;;
2023/05/25 13:16:57;;;;;;;7.07;6.47;;;25.10;47.00;;;;;;4996309;28;20474;-85
2023/05/25 13:19:45;;;;;;;5.80;5.20;;;24.70;47.50;;;;;;4992967;28;20534;-85
2023/05/25 13:22:37;;;;;;;10.60;8.80;;;25.00;47.90;;;;;;4952235;29;20468;-86
2023/05/25 13:27:59;;;;;;;5.43;4.87;;;24.90;47.70;;;;;;4999301;23;21106;-85
2023/05/25 13:30:48;;;;;;;4.37;3.53;;;24.80;48.60;;;;;;5032238;28;20452;-85
2023/05/25 13:33:40;;;;;;;;;;;;;;;;;;;;;
2023/05/25 13:36:19;;;;;;;4.83;4.33;;;24.60;48.90;;;;;;5043498;28;20462;-86
2023/05/25 13:39:06;;;;;;;5.93;4.50;;;24.60;48.40;;;;;;5030223;28;20509;-85
2023/05/25 13:41:41;;;;;;;5.50;4.20;;;24.40;48.30;;;;;;5033716;28;20817;-85
2023/05/25 13:44:12;;;;;;;5.47;4.07;;;24.30;48.90;;;;;;5035488;28;20523;-85
2023/05/25 13:47:01;;;;;;;6.03;3.93;;;24.00;49.20;;;;;;5030274;28;20487;-85
2023/05/25 13:49:41;;;;;;;4.30;3.47;;;23.90;49.00;;;;;;5034180;28;20481;-85
2023/05/25 13:52:11;;;;;;;6.43;5.10;;;23.40;48.90;;;;;;5037360;28;20477;-85
2023/05/25 13:54:44;;;;;;;4.80;4.13;;;23.40;49.70;;;;;;5032579;28;20541;-85
2023/05/25 13:57:20;;;;;;;5.63;4.00;;;23.30;50.20;;;;;;5036277;28;20484;-85
2023/05/25 14:00:09;;;;;;;4.43;4.03;;;23.40;50.00;;;;;;5036768;28;20862;-85
2023/05/25 14:03:00;;;;;;;4.53;4.10;;;23.30;49.80;;;;;;5037950;28;20457;-85
2023/05/25 14:05:54;;;;;;;4.93;4.13;;;23.20;51.00;;;;;;5037436;28;20471;-85
2023/05/25 14:08:55;;;;;;;5.80;4.10;;;23.30;50.10;;;;;;5034584;28;21047;-85
2023/05/25 14:11:36;;;;;;;5.20;4.70;;;23.10;50.20;;;;;;5035907;28;20437;-86
2023/05/25 14:14:21;;;;;;;5.77;4.43;;;22.90;50.40;;;;;;5041478;28;20456;-85
2023/05/25 14:17:19;;;;;;;6.40;5.77;;;22.90;50.90;;;;;;5033161;28;20444;-84
2023/05/25 14:19:57;;;;;;;5.73;4.20;;;22.70;51.10;;;;;;5041434;28;20499;-85
2023/05/25 14:22:39;;;;;;;6.97;4.27;;;22.70;50.80;;;;;;5029213;28;20528;-84
2023/05/25 14:25:16;;;;;;;5.70;4.07;;;22.70;50.50;;;;;;5046118;28;20477;-85
2023/05/25 14:27:46;;;;;;;6.23;5.10;;;22.50;51.70;;;;;;5041700;28;20442;-86
2023/05/25 14:30:18;;;;;;;6.63;5.50;;;22.40;52.10;;;;;;5044096;28;20457;-84
2023/05/25 14:32:55;;;;;;;6.33;4.30;;;22.40;52.30;;;;;;5031361;28;20460;-86
2023/05/25 14:35:25;;;;;;;5.20;4.07;;;22.60;52.30;;;;;;5037192;22;20576;-86
2023/05/25 14:38:21;;;;;;;5.93;4.97;;;22.70;52.10;;;;;;5022732;28;20441;-86